Terminal Aerodrome Forecast
Issued by NWS

Home | Current Version | Previous Version | Text Only | Print | Product List | Glossary On
Versions: 1 2 3 4 5 6 7 8 9 10 11 12 13 14 15 16 17 18 19 20 21
864
FTUS43 KGRR 192341
TAFMKG
TAF
KMKG 192341Z 2000/2024 12006KT 2SM -SHRA BR OVC015
     FM200300 16005KT 1SM -RA BR OVC004 WS014/21050KT
     FM201400 19007KT 1 1/2SM -RA BR OVC003=

USA.gov is the U.S. government's official web portal to all federal, state and local government web resources and services.